createdAt,value
2019-01-25T00:00:46.769Z,85.72
2019-01-25T00:01:46.855Z,85.81
2019-01-25T00:02:46.939Z,86.10
2019-01-25T00:03:47.023Z,86.19
2019-01-25T00:04:47.111Z,85.43
2019-01-25T00:05:47.193Z,86.19
2019-01-25T00:06:47.280Z,85.81
2019-01-25T00:07:47.366Z,86.10
2019-01-25T00:08:47.452Z,86.00
2019-01-25T00:09:47.537Z,86.29
2019-01-25T00:10:47.619Z,86.10
2019-01-25T00:11:47.705Z,86.00
2019-01-25T00:12:47.789Z,86.10
2019-01-25T00:13:47.875Z,86.10
2019-01-25T00:14:47.957Z,86.10
2019-01-25T00:15:48.060Z,86.00
2019-01-25T00:16:48.150Z,86.19
2019-01-25T00:17:48.230Z,86.19
2019-01-25T00:18:48.317Z,86.29
2019-01-25T00:19:48.402Z,86.38
2019-01-25T00:20:48.488Z,86.00
2019-01-25T00:21:48.573Z,86.19
2019-01-25T00:22:48.657Z,86.29
2019-01-25T00:23:48.758Z,86.38
2019-01-25T00:24:48.825Z,86.38
2019-01-25T00:25:48.913Z,85.91
2019-01-25T00:26:48.999Z,85.43
2019-01-25T00:27:49.083Z,85.24
2019-01-25T00:28:49.223Z,85.34
2019-01-25T00:29:49.263Z,85.34
2019-01-25T00:30:49.346Z,85.15
2019-01-25T00:31:49.426Z,85.34
2019-01-25T00:32:49.511Z,85.34
2019-01-25T00:33:49.598Z,85.62
2019-01-25T00:34:49.682Z,86.29
2019-01-25T00:35:49.769Z,85.53
2019-01-25T00:36:49.851Z,86.10
2019-01-25T00:37:49.936Z,86.38
2019-01-25T00:38:50.024Z,86.19
2019-01-25T00:39:50.111Z,85.81
2019-01-25T00:40:50.194Z,86.00
2019-01-25T00:41:50.282Z,86.29
2019-01-25T00:42:50.364Z,86.66
2019-01-25T00:43:50.450Z,86.29
2019-01-25T00:44:50.535Z,86.66
2019-01-25T00:45:50.617Z,86.47
2019-01-25T00:46:50.702Z,86.19
2019-01-25T00:47:50.790Z,86.19
2019-01-25T00:48:50.873Z,85.62
2019-01-25T00:49:50.956Z,86.29
2019-01-25T00:50:51.043Z,86.19
2019-01-25T00:51:51.119Z,86.19
2019-01-25T00:52:51.212Z,86.00
2019-01-25T00:53:51.296Z,86.47
2019-01-25T00:54:51.379Z,86.19
2019-01-25T00:55:51.463Z,86.10
2019-01-25T00:56:51.552Z,85.43
2019-01-25T00:57:51.635Z,85.72
2019-01-25T00:58:51.720Z,85.53
2019-01-25T00:59:51.804Z,85.53
2019-01-25T01:00:51.889Z,85.62
2019-01-25T01:01:51.975Z,85.15
2019-01-25T01:02:52.059Z,85.53
2019-01-25T01:03:52.141Z,85.53
2019-01-25T01:04:52.228Z,85.62
2019-01-25T01:05:52.311Z,85.24
2019-01-25T01:06:52.395Z,85.24
2019-01-25T01:07:52.484Z,85.34
2019-01-25T01:08:52.567Z,85.43
2019-01-25T01:09:52.651Z,85.34
2019-01-25T01:10:52.737Z,85.24
2019-01-25T01:11:52.822Z,85.24
2019-01-25T01:12:52.905Z,85.62
2019-01-25T01:13:52.990Z,85.62
2019-01-25T01:14:53.076Z,85.43
2019-01-25T01:15:53.163Z,85.43
2019-01-25T01:16:53.246Z,85.05
2019-01-25T01:17:53.334Z,84.86
2019-01-25T01:18:53.416Z,85.05
2019-01-25T01:19:53.502Z,85.05
2019-01-25T01:20:53.586Z,84.86
2019-01-25T01:21:53.672Z,85.34
2019-01-25T01:22:53.762Z,85.05
2019-01-25T01:23:53.840Z,85.15
2019-01-25T01:24:53.926Z,85.43
2019-01-25T01:25:54.005Z,85.15
2019-01-25T01:26:54.095Z,85.24
2019-01-25T01:27:54.181Z,85.43
2019-01-25T01:28:54.262Z,85.43
2019-01-25T01:29:54.350Z,85.15
2019-01-25T01:30:54.432Z,85.24
2019-01-25T01:31:54.515Z,85.24
2019-01-25T01:32:54.601Z,85.24
2019-01-25T01:33:54.687Z,85.24
2019-01-25T01:34:54.773Z,85.15
2019-01-25T01:35:54.858Z,85.24
2019-01-25T01:36:54.939Z,85.53
2019-01-25T01:37:55.029Z,85.34
2019-01-25T01:38:55.115Z,85.62
2019-01-25T01:39:55.200Z,85.62
2019-01-25T01:40:55.285Z,85.24
2019-01-25T01:41:55.370Z,85.43
2019-01-25T01:42:55.456Z,85.53
2019-01-25T01:43:55.542Z,85.15
2019-01-25T01:44:55.626Z,85.24
2019-01-25T01:45:55.707Z,85.62
2019-01-25T01:46:55.790Z,85.15
2019-01-25T01:47:55.875Z,85.72
2019-01-25T01:48:55.961Z,85.53
2019-01-25T01:49:56.044Z,85.62
2019-01-25T01:50:56.139Z,85.53
2019-01-25T01:51:56.215Z,85.34
2019-01-25T01:52:56.300Z,85.53
2019-01-25T01:53:56.382Z,85.72
2019-01-25T01:54:56.464Z,85.53
2019-01-25T01:55:56.553Z,85.24
2019-01-25T01:56:56.638Z,85.15
2019-01-25T01:57:56.723Z,85.43
2019-01-25T01:58:56.808Z,85.15
2019-01-25T01:59:56.893Z,85.24
2019-01-25T02:00:56.977Z,85.15
2019-01-25T02:01:57.065Z,85.53
2019-01-25T02:02:57.151Z,85.53
2019-01-25T02:03:57.236Z,85.24
2019-01-25T02:04:57.319Z,85.24
2019-01-25T02:05:57.405Z,85.24
2019-01-25T02:06:57.495Z,85.62
2019-01-25T02:07:57.579Z,85.24
2019-01-25T02:08:57.665Z,85.24
2019-01-25T02:09:57.750Z,85.53
2019-01-25T02:10:57.838Z,85.53
2019-01-25T02:11:57.943Z,85.72
2019-01-25T02:12:58.005Z,85.62
2019-01-25T02:13:58.081Z,85.24
2019-01-25T02:14:58.173Z,85.34
2019-01-25T02:15:58.256Z,85.43
2019-01-25T02:16:58.338Z,85.15
2019-01-25T02:17:58.433Z,85.53
2019-01-25T02:18:58.503Z,85.43
2019-01-25T02:19:58.591Z,85.24
2019-01-25T02:20:58.672Z,85.34
2019-01-25T02:21:58.756Z,85.53
2019-01-25T02:22:58.844Z,85.24
2019-01-25T02:23:58.926Z,85.05
2019-01-25T02:24:59.015Z,85.53
2019-01-25T02:25:59.093Z,85.24
2019-01-25T02:26:59.185Z,85.53
2019-01-25T02:27:59.262Z,85.53
2019-01-25T02:28:59.349Z,85.53
2019-01-25T02:29:59.478Z,85.53
2019-01-25T02:30:59.518Z,85.43
2019-01-25T02:31:59.605Z,85.43
2019-01-25T02:32:59.691Z,85.43
2019-01-25T02:34:00.733Z,85.34
2019-01-25T02:34:59.858Z,85.24
2019-01-25T02:35:59.940Z,85.05
2019-01-25T02:37:00.025Z,84.86
2019-01-25T02:38:00.120Z,85.15
2019-01-25T02:39:00.197Z,85.05
2019-01-25T02:40:00.299Z,85.24
2019-01-25T02:41:00.367Z,84.68
2019-01-25T02:42:00.454Z,84.86
2019-01-25T02:43:00.539Z,84.77
2019-01-25T02:44:00.619Z,85.05
2019-01-25T02:45:00.706Z,85.62
2019-01-25T02:46:00.793Z,85.24
2019-01-25T02:47:00.874Z,84.49
2019-01-25T02:48:00.963Z,84.11
2019-01-25T02:49:01.046Z,84.68
2019-01-25T02:50:01.129Z,84.68
2019-01-25T02:51:01.216Z,84.11
2019-01-25T02:52:01.303Z,84.30
2019-01-25T02:53:03.991Z,84.20
2019-01-25T02:54:01.468Z,84.11
2019-01-25T02:55:01.560Z,84.01
2019-01-25T02:56:01.647Z,83.54
2019-01-25T02:57:01.735Z,83.73
2019-01-25T02:58:01.817Z,83.83
2019-01-25T02:59:01.913Z,83.83
2019-01-25T03:00:01.990Z,83.54
2019-01-25T03:01:02.074Z,82.98
2019-01-25T03:02:02.170Z,83.26
2019-01-25T03:03:02.241Z,82.41
2019-01-25T03:04:02.324Z,82.41
2019-01-25T03:05:02.410Z,82.31
2019-01-25T03:06:02.497Z,81.84
2019-01-25T03:07:02.579Z,81.37
2019-01-25T03:08:02.670Z,81.37
2019-01-25T03:09:02.748Z,80.52
2019-01-25T03:10:02.833Z,80.62
2019-01-25T03:11:02.917Z,80.52
2019-01-25T03:12:02.998Z,80.71
2019-01-25T03:13:03.084Z,80.52
2019-01-25T03:14:03.169Z,80.62
2019-01-25T03:15:03.256Z,80.62
2019-01-25T03:16:03.336Z,80.43
2019-01-25T03:17:03.424Z,80.80
2019-01-25T03:18:03.507Z,80.90
2019-01-25T03:19:03.596Z,80.62
2019-01-25T03:20:03.675Z,80.71
2019-01-25T03:21:05.016Z,80.10
2019-01-25T03:22:03.843Z,80.29
2019-01-25T03:23:03.929Z,80.29
2019-01-25T03:24:04.012Z,80.66
2019-01-25T03:25:04.095Z,80.38
2019-01-25T03:26:04.181Z,80.71
2019-01-25T03:27:04.270Z,81.42
2019-01-25T03:28:04.352Z,80.48
2019-01-25T03:29:04.441Z,80.52
2019-01-25T03:30:04.527Z,80.62
2019-01-25T03:31:11.764Z,80.80
2019-01-25T03:32:04.725Z,80.90
2019-01-25T03:33:04.809Z,80.80
2019-01-25T03:34:04.891Z,80.99
2019-01-25T03:35:04.981Z,80.62
2019-01-25T03:36:05.064Z,80.52
2019-01-25T03:37:05.152Z,81.18
2019-01-25T03:38:05.235Z,81.18
2019-01-25T03:39:05.320Z,81.18
2019-01-25T03:40:05.406Z,80.99
2019-01-25T03:41:05.495Z,81.09
2019-01-25T03:42:05.574Z,80.48
2019-01-25T03:43:05.659Z,80.85
2019-01-25T03:44:05.744Z,81.23
2019-01-25T03:45:05.829Z,81.33
2019-01-25T03:46:05.912Z,81.33
2019-01-25T03:47:05.993Z,81.33
2019-01-25T03:48:06.077Z,81.04
2019-01-25T03:49:06.162Z,81.23
2019-01-25T03:50:06.248Z,81.61
2019-01-25T03:51:06.330Z,81.80
2019-01-25T03:52:06.417Z,81.71
2019-01-25T03:53:06.507Z,81.61
2019-01-25T03:54:06.587Z,81.90
2019-01-25T03:55:06.671Z,81.71
2019-01-25T03:56:06.756Z,82.09
2019-01-25T03:57:06.838Z,81.99
2019-01-25T03:58:06.925Z,81.61
2019-01-25T03:59:07.009Z,81.99
2019-01-25T04:00:07.090Z,82.09
2019-01-25T04:01:07.175Z,82.37
2019-01-25T04:02:07.260Z,82.46
2019-01-25T04:03:07.343Z,82.28
2019-01-25T04:04:07.429Z,82.09
2019-01-25T04:05:07.515Z,81.99
2019-01-25T04:06:07.599Z,82.31
2019-01-25T04:07:07.680Z,81.99
2019-01-25T04:08:07.768Z,81.80
2019-01-25T04:09:07.847Z,81.93
2019-01-25T04:10:07.933Z,81.99
2019-01-25T04:11:08.019Z,82.03
2019-01-25T04:12:08.103Z,82.22
2019-01-25T04:13:08.186Z,81.93
2019-01-25T04:14:08.271Z,81.84
2019-01-25T04:15:08.356Z,81.84
2019-01-25T04:16:08.444Z,82.41
2019-01-25T04:17:08.531Z,82.31
2019-01-25T04:18:08.615Z,82.12
2019-01-25T04:19:08.696Z,82.03
2019-01-25T04:20:08.782Z,81.99
2019-01-25T04:21:08.873Z,82.18
2019-01-25T04:22:08.954Z,82.56
2019-01-25T04:23:09.036Z,82.65
2019-01-25T04:24:09.124Z,82.46
2019-01-25T04:25:09.201Z,82.18
2019-01-25T04:26:09.286Z,82.46
2019-01-25T04:27:09.372Z,82.28
2019-01-25T04:28:09.457Z,82.46
2019-01-25T04:29:09.542Z,82.09
2019-01-25T04:30:09.623Z,81.80
2019-01-25T04:31:09.708Z,81.61
2019-01-25T04:32:09.796Z,82.22
2019-01-25T04:33:09.875Z,81.80
2019-01-25T04:34:09.959Z,81.61
2019-01-25T04:35:10.045Z,82.18
2019-01-25T04:36:10.127Z,82.56
2019-01-25T04:37:10.215Z,82.56
2019-01-25T04:38:10.301Z,82.03
2019-01-25T04:39:10.386Z,82.18
2019-01-25T04:40:10.468Z,81.99
2019-01-25T04:41:11.804Z,81.90
2019-01-25T04:42:10.638Z,82.18
2019-01-25T04:43:10.722Z,81.99
2019-01-25T04:44:10.808Z,81.99
2019-01-25T04:45:10.897Z,82.28
2019-01-25T04:46:10.973Z,82.09
2019-01-25T04:47:11.058Z,82.28
2019-01-25T04:48:11.143Z,82.18
2019-01-25T04:49:11.226Z,82.46
2019-01-25T04:50:11.309Z,81.52
2019-01-25T04:51:11.399Z,81.80
2019-01-25T04:52:11.480Z,81.74
2019-01-25T04:53:11.572Z,81.84
2019-01-25T04:54:11.656Z,81.74
2019-01-25T04:55:11.739Z,81.37
2019-01-25T04:56:11.845Z,81.18
2019-01-25T04:57:11.909Z,81.09
2019-01-25T04:58:11.991Z,81.18
2019-01-25T04:59:12.076Z,81.46
2019-01-25T05:00:12.162Z,81.46
2019-01-25T05:01:12.249Z,81.27
2019-01-25T05:02:12.332Z,81.46
2019-01-25T05:03:12.415Z,81.18
2019-01-25T05:04:12.499Z,80.95
2019-01-25T05:05:12.581Z,81.42
2019-01-25T05:06:12.672Z,81.18
2019-01-25T05:07:12.751Z,81.18
2019-01-25T05:08:12.835Z,81.04
2019-01-25T05:09:12.919Z,81.42
2019-01-25T05:10:13.003Z,80.95
2019-01-25T05:11:19.700Z,81.14
2019-01-25T05:12:13.175Z,81.61
2019-01-25T05:13:13.260Z,81.33
2019-01-25T05:14:13.346Z,81.04
2019-01-25T05:15:13.431Z,81.61
2019-01-25T05:16:13.511Z,81.80
2019-01-25T05:17:13.603Z,82.37
2019-01-25T05:18:13.682Z,82.46
2019-01-25T05:19:13.774Z,81.80
2019-01-25T05:20:13.859Z,82.37
2019-01-25T05:21:13.945Z,82.37
2019-01-25T05:22:14.031Z,82.37
2019-01-25T05:23:14.920Z,82.37
2019-01-25T05:24:14.257Z,82.46
2019-01-25T05:25:14.343Z,82.18
2019-01-25T05:26:14.427Z,82.37
2019-01-25T05:27:14.508Z,81.99
2019-01-25T05:28:14.591Z,82.18
2019-01-25T05:29:14.677Z,81.61
2019-01-25T05:30:14.762Z,81.80
2019-01-25T05:31:14.849Z,81.71
2019-01-25T05:32:14.927Z,81.61
2019-01-25T05:33:15.004Z,81.52
2019-01-25T05:34:15.093Z,81.14
2019-01-25T05:35:15.175Z,81.23
2019-01-25T05:36:15.260Z,81.14
2019-01-25T05:37:15.344Z,81.80
2019-01-25T05:38:15.431Z,81.80
2019-01-25T05:39:15.502Z,81.23
2019-01-25T05:40:15.586Z,81.14
2019-01-25T05:41:15.670Z,81.14
2019-01-25T05:42:15.755Z,81.14
2019-01-25T05:43:15.839Z,81.23
2019-01-25T05:44:15.925Z,81.52
2019-01-25T05:45:16.008Z,81.80
2019-01-25T05:46:16.091Z,81.61
2019-01-25T05:47:16.175Z,81.61
2019-01-25T05:48:16.273Z,81.80
2019-01-25T05:49:16.344Z,81.61
2019-01-25T05:50:16.426Z,81.90
2019-01-25T05:51:16.515Z,81.42
2019-01-25T05:52:16.597Z,81.52
2019-01-25T05:53:16.683Z,81.61
2019-01-25T05:54:16.768Z,81.42
2019-01-25T05:55:16.855Z,81.04
2019-01-25T05:56:16.939Z,81.14
2019-01-25T05:57:17.025Z,81.23
2019-01-25T05:58:17.104Z,81.33
2019-01-25T05:59:17.187Z,81.23
2019-01-25T06:00:17.271Z,81.52
2019-01-25T06:01:17.357Z,81.71
2019-01-25T06:02:17.441Z,81.90
2019-01-25T06:03:17.534Z,82.37
2019-01-25T06:04:17.610Z,81.80
2019-01-25T06:05:17.701Z,81.90
2019-01-25T06:06:17.787Z,81.61
2019-01-25T06:07:17.872Z,82.09
2019-01-25T06:08:17.956Z,81.90
2019-01-25T06:09:18.041Z,82.18
2019-01-25T06:10:18.125Z,81.52
2019-01-25T06:11:18.229Z,81.61
2019-01-25T06:12:18.293Z,81.99
2019-01-25T06:13:18.377Z,81.99
2019-01-25T06:14:18.513Z,81.52
2019-01-25T06:15:18.591Z,81.61
2019-01-25T06:16:18.676Z,81.71
2019-01-25T06:17:18.783Z,81.42
2019-01-25T06:18:18.870Z,81.33
2019-01-25T06:19:18.962Z,81.61
2019-01-25T06:20:19.047Z,81.52
2019-01-25T06:21:19.132Z,81.71
2019-01-25T06:22:19.214Z,81.99
2019-01-25T06:23:19.301Z,81.99
2019-01-25T06:24:19.390Z,81.99
2019-01-25T06:25:19.473Z,81.99
2019-01-25T06:26:19.558Z,81.99
2019-01-25T06:27:19.643Z,81.80
2019-01-25T06:28:19.726Z,81.52
2019-01-25T06:29:19.813Z,81.99
2019-01-25T06:30:19.895Z,82.56
2019-01-25T06:31:19.980Z,82.18
2019-01-25T06:32:20.065Z,82.28
2019-01-25T06:33:20.152Z,82.65
2019-01-25T06:34:20.302Z,82.46
2019-01-25T06:35:20.323Z,82.18
2019-01-25T06:36:20.403Z,82.46
2019-01-25T06:37:20.556Z,82.37
2019-01-25T06:38:20.577Z,82.46
2019-01-25T06:39:20.657Z,82.46
2019-01-25T06:40:20.744Z,82.37
2019-01-25T06:41:20.863Z,82.18
2019-01-25T06:42:21.171Z,81.52
2019-01-25T06:43:21.008Z,81.61
2019-01-25T06:44:21.092Z,81.71
2019-01-25T06:45:21.180Z,81.80
2019-01-25T06:46:21.265Z,81.80
2019-01-25T06:47:21.349Z,81.33
2019-01-25T06:48:21.438Z,81.33
2019-01-25T06:49:21.532Z,81.52
2019-01-25T06:50:21.629Z,81.80
2019-01-25T06:51:21.727Z,81.71
2019-01-25T06:52:21.808Z,82.18
2019-01-25T06:53:21.896Z,82.56
2019-01-25T06:54:21.990Z,82.46
2019-01-25T06:55:22.074Z,81.99
2019-01-25T06:56:22.168Z,81.99
2019-01-25T06:57:22.253Z,81.80
2019-01-25T06:58:22.337Z,80.95
2019-01-25T06:59:22.423Z,81.14
2019-01-25T07:00:22.508Z,80.99
2019-01-25T07:01:22.592Z,81.84
2019-01-25T07:02:22.696Z,82.12
2019-01-25T07:03:22.819Z,81.74
2019-01-25T07:04:22.889Z,81.74
2019-01-25T07:05:22.982Z,81.93
2019-01-25T07:06:23.062Z,81.46
2019-01-25T07:07:23.145Z,81.18
2019-01-25T07:08:23.230Z,81.18
2019-01-25T07:09:23.299Z,81.18
2019-01-25T07:10:23.396Z,81.46
2019-01-25T07:11:23.480Z,81.46
2019-01-25T07:12:23.564Z,81.09
2019-01-25T07:13:23.649Z,81.27
2019-01-25T07:14:23.733Z,81.27
2019-01-25T07:15:23.819Z,81.18
2019-01-25T07:16:23.902Z,81.37
2019-01-25T07:17:23.984Z,81.56
2019-01-25T07:18:24.071Z,81.46
2019-01-25T07:19:24.155Z,81.65
2019-01-25T07:20:24.243Z,80.99
2019-01-25T07:21:24.329Z,81.42
2019-01-25T07:22:24.410Z,81.27
2019-01-25T07:23:24.496Z,81.23
2019-01-25T07:24:24.582Z,81.37
2019-01-25T07:25:24.667Z,81.27
2019-01-25T07:26:24.752Z,81.27
2019-01-25T07:27:24.828Z,81.18
2019-01-25T07:28:24.929Z,80.90
2019-01-25T07:29:25.033Z,80.71
2019-01-25T07:30:25.109Z,80.80
2019-01-25T07:31:25.181Z,80.80
2019-01-25T07:34:57.541Z,80.80
2019-01-25T07:35:57.621Z,81.18
2019-01-25T07:36:57.773Z,80.90
2019-01-25T07:37:57.834Z,80.90
2019-01-25T07:38:57.897Z,80.80
2019-01-25T07:39:57.978Z,80.99
2019-01-25T07:40:58.062Z,81.46
2019-01-25T07:42:00.268Z,80.80
2019-01-25T07:42:58.245Z,80.90
2019-01-25T07:43:58.323Z,80.99
2019-01-25T07:44:58.427Z,80.52
2019-01-25T07:45:58.516Z,80.71
2019-01-25T07:46:58.588Z,80.33
2019-01-25T07:47:58.782Z,80.05
2019-01-25T07:48:58.760Z,80.43
2019-01-25T07:49:58.843Z,80.05
2019-01-25T07:50:58.938Z,80.24
2019-01-25T07:51:59.027Z,80.43
2019-01-25T07:52:59.104Z,79.76
2019-01-25T07:53:59.219Z,79.19
2019-01-25T07:54:59.293Z,79.29
2019-01-25T07:55:59.363Z,79.10
2019-01-25T07:56:59.446Z,79.38
2019-01-25T07:57:59.545Z,79.57
2019-01-25T07:58:59.618Z,79.48
2019-01-25T07:59:59.717Z,79.29
2019-01-25T08:00:59.788Z,78.72
2019-01-25T08:01:59.872Z,78.50
2019-01-25T08:02:59.957Z,78.40
2019-01-25T08:04:00.042Z,78.97
2019-01-25T08:05:00.541Z,79.35
2019-01-25T08:06:00.214Z,79.72
2019-01-25T08:07:00.305Z,80.19
2019-01-25T08:08:00.383Z,79.91
2019-01-25T08:09:00.489Z,80.10
2019-01-25T08:10:00.857Z,80.00
2019-01-25T08:11:00.640Z,80.38
2019-01-25T08:12:07.244Z,80.10
2019-01-25T08:13:00.810Z,80.43
2019-01-25T08:14:00.895Z,80.62
2019-01-25T08:15:00.980Z,81.27
2019-01-25T08:16:01.066Z,80.71
2019-01-25T08:17:01.150Z,80.90
2019-01-25T08:18:01.237Z,80.80
2019-01-25T08:19:01.319Z,80.62
2019-01-25T08:20:01.404Z,80.14
2019-01-25T08:21:01.499Z,79.67
2019-01-25T08:22:01.584Z,79.86
2019-01-25T08:23:01.663Z,79.95
2019-01-25T08:24:01.779Z,79.76
2019-01-25T08:25:01.831Z,79.57
2019-01-25T08:26:01.938Z,79.29
2019-01-25T08:27:02.007Z,79.19
2019-01-25T08:28:02.151Z,79.67
2019-01-25T08:29:02.233Z,79.57
2019-01-25T08:30:02.264Z,80.24
2019-01-25T08:31:03.247Z,80.33
2019-01-25T08:32:02.462Z,80.14
2019-01-25T08:33:02.539Z,79.76
2019-01-25T08:34:02.616Z,80.14
2019-01-25T08:35:02.709Z,80.43
2019-01-25T08:36:02.798Z,80.14
2019-01-25T08:37:02.904Z,79.67
2019-01-25T08:38:02.975Z,79.67
2019-01-25T08:39:03.072Z,79.86
2019-01-25T08:40:03.175Z,79.38
2019-01-25T08:41:03.224Z,79.57
2019-01-25T08:42:03.357Z,79.67
2019-01-25T08:43:03.413Z,79.19
2019-01-25T08:44:03.478Z,79.38
2019-01-25T08:45:03.610Z,79.38
2019-01-25T08:46:03.677Z,79.38
2019-01-25T08:47:03.757Z,79.38
2019-01-25T08:48:03.845Z,79.38
2019-01-25T08:49:03.945Z,79.38
2019-01-25T08:50:04.050Z,79.29
2019-01-25T08:51:04.115Z,79.67
2019-01-25T08:52:04.216Z,79.67
2019-01-25T08:53:04.277Z,80.24
2019-01-25T08:54:04.356Z,80.33
2019-01-25T08:55:04.432Z,80.43
2019-01-25T08:56:04.557Z,80.05
2019-01-25T08:57:04.580Z,79.57
2019-01-25T08:58:04.666Z,79.57
2019-01-25T08:59:04.747Z,79.67
2019-01-25T09:00:04.836Z,79.86
2019-01-25T09:01:04.920Z,79.57
2019-01-25T09:02:05.004Z,79.38
2019-01-25T09:03:05.092Z,79.57
2019-01-25T09:04:05.180Z,79.86
2019-01-25T09:05:05.265Z,79.67
2019-01-25T09:06:05.350Z,79.95
2019-01-25T09:07:05.437Z,80.24
2019-01-25T09:08:05.519Z,80.24
2019-01-25T09:09:05.603Z,79.95
2019-01-25T09:10:05.690Z,80.14
2019-01-25T09:11:05.819Z,80.14
2019-01-25T09:12:05.892Z,80.33
2019-01-25T09:13:06.121Z,80.14
2019-01-25T09:14:06.089Z,80.43
2019-01-25T09:15:06.979Z,79.76
2019-01-25T09:16:06.195Z,79.67
2019-01-25T09:17:06.285Z,79.61
2019-01-25T09:18:06.370Z,79.19
2019-01-25T09:19:06.459Z,79.33
2019-01-25T09:20:06.542Z,79.33
2019-01-25T09:21:06.626Z,78.48
2019-01-25T09:22:06.710Z,78.01
2019-01-25T09:23:06.795Z,78.01
2019-01-25T09:24:06.879Z,78.48
2019-01-25T09:25:06.961Z,78.29
2019-01-25T09:26:07.046Z,78.67
2019-01-25T09:27:07.130Z,78.58
2019-01-25T09:28:07.214Z,78.58
2019-01-25T09:29:07.302Z,78.48
2019-01-25T09:30:07.389Z,78.67
2019-01-25T09:31:07.468Z,77.91
2019-01-25T09:32:07.553Z,78.20
2019-01-25T09:33:07.638Z,78.39
2019-01-25T09:34:07.724Z,78.01
2019-01-25T09:35:07.812Z,77.25
2019-01-25T09:36:16.546Z,76.59
2019-01-25T09:37:08.008Z,76.12
2019-01-25T09:38:08.138Z,76.31
2019-01-25T09:39:08.177Z,77.15
2019-01-25T09:40:08.260Z,77.34
2019-01-25T09:41:08.348Z,77.53
2019-01-25T09:42:08.433Z,78.20
2019-01-25T09:43:08.513Z,78.01
2019-01-25T09:44:08.600Z,78.10
2019-01-25T09:45:08.688Z,77.82
2019-01-25T09:46:08.766Z,77.34
2019-01-25T09:47:08.849Z,77.63
2019-01-25T09:48:08.934Z,77.34
2019-01-25T09:49:09.020Z,77.44
2019-01-25T09:50:09.106Z,77.53
2019-01-25T09:51:09.188Z,77.63
2019-01-25T09:52:09.268Z,78.48
2019-01-25T09:53:09.355Z,77.82
2019-01-25T09:54:09.436Z,77.34
2019-01-25T09:55:09.521Z,77.53
2019-01-25T09:56:09.606Z,77.34
2019-01-25T09:57:09.697Z,76.97
2019-01-25T09:58:09.777Z,76.87
2019-01-25T09:59:09.862Z,76.97
2019-01-25T10:00:09.946Z,76.21
2019-01-25T10:01:10.030Z,76.40
2019-01-25T10:02:10.123Z,76.78
2019-01-25T10:03:10.205Z,76.21
2019-01-25T10:04:10.290Z,76.21
2019-01-25T10:05:10.375Z,75.93
2019-01-25T10:06:10.461Z,76.21
2019-01-25T10:07:10.545Z,76.12
2019-01-25T10:08:10.629Z,76.31
2019-01-25T10:09:10.714Z,76.59
2019-01-25T10:10:10.802Z,76.31
2019-01-25T10:11:10.883Z,76.87
2019-01-25T10:12:10.968Z,76.21
2019-01-25T10:13:11.054Z,75.36
2019-01-25T10:14:11.143Z,74.60
2019-01-25T10:15:11.229Z,74.98
2019-01-25T10:16:11.308Z,75.55
2019-01-25T10:17:11.391Z,75.26
2019-01-25T10:18:11.478Z,74.79
2019-01-25T10:19:11.564Z,74.60
2019-01-25T10:20:11.649Z,74.60
2019-01-25T10:21:11.733Z,75.17
2019-01-25T10:22:11.818Z,75.64
2019-01-25T10:23:11.906Z,74.79
2019-01-25T10:24:11.985Z,74.79
2019-01-25T10:25:12.069Z,75.55
2019-01-25T10:26:12.156Z,75.26
2019-01-25T10:27:12.242Z,75.07
2019-01-25T10:28:12.327Z,74.41
2019-01-25T10:29:12.410Z,74.13
2019-01-25T10:30:12.493Z,74.60
2019-01-25T10:31:12.579Z,75.26
2019-01-25T10:32:12.667Z,74.51
2019-01-25T10:33:12.752Z,74.88
2019-01-25T10:34:12.838Z,73.85
2019-01-25T10:35:12.922Z,74.04
2019-01-25T10:36:13.007Z,73.66
2019-01-25T10:37:13.092Z,74.13
2019-01-25T10:38:13.175Z,74.41
2019-01-25T10:39:13.259Z,74.13
2019-01-25T10:40:13.344Z,73.28
2019-01-25T10:41:13.430Z,73.18
2019-01-25T10:42:13.514Z,73.47
2019-01-25T10:43:13.599Z,73.56
2019-01-25T10:44:13.684Z,73.37
2019-01-25T10:45:13.770Z,73.56
2019-01-25T10:46:13.854Z,73.66
2019-01-25T10:47:13.939Z,73.47
2019-01-25T10:48:14.025Z,73.09
2019-01-25T10:49:14.109Z,73.56
2019-01-25T10:50:14.196Z,73.09
2019-01-25T10:51:14.282Z,72.52
2019-01-25T10:52:14.372Z,72.99
2019-01-25T10:53:14.453Z,72.62
2019-01-25T10:54:14.539Z,71.95
2019-01-25T10:55:14.627Z,71.77
2019-01-25T10:56:14.713Z,71.52
2019-01-25T10:57:14.797Z,71.71
2019-01-25T10:58:14.883Z,72.28
2019-01-25T10:59:14.967Z,71.80
2019-01-25T11:00:15.051Z,71.80
2019-01-25T11:01:15.124Z,71.80
2019-01-25T11:02:15.201Z,70.95
2019-01-25T11:03:15.284Z,70.39
2019-01-25T11:04:15.401Z,70.57
2019-01-25T11:05:15.455Z,70.29
2019-01-25T11:06:15.538Z,70.29
2019-01-25T11:07:15.630Z,70.06
2019-01-25T11:08:15.707Z,69.72
2019-01-25T11:09:15.862Z,69.82
2019-01-25T11:10:15.951Z,70.44
2019-01-25T11:11:16.033Z,70.06
2019-01-25T11:12:16.119Z,70.76
2019-01-25T11:13:16.205Z,70.73
2019-01-25T11:14:16.291Z,70.73
2019-01-25T11:15:16.375Z,70.35
2019-01-25T11:16:16.466Z,70.44
2019-01-25T11:17:16.552Z,70.76
2019-01-25T11:18:16.635Z,70.29
2019-01-25T11:19:16.721Z,69.87
2019-01-25T11:20:16.806Z,69.87
2019-01-25T11:21:16.894Z,69.87
2019-01-25T11:22:16.978Z,69.78
2019-01-25T11:23:17.065Z,69.68
2019-01-25T11:24:17.153Z,70.35
2019-01-25T11:25:17.237Z,70.44
2019-01-25T11:26:17.322Z,70.67
2019-01-25T11:27:17.405Z,70.95
2019-01-25T11:28:17.490Z,70.57
2019-01-25T11:29:17.575Z,70.29
2019-01-25T11:30:17.664Z,70.39
2019-01-25T11:31:17.752Z,70.10
2019-01-25T11:32:17.839Z,69.91
2019-01-25T11:33:17.926Z,69.82
2019-01-25T11:34:18.029Z,69.34
2019-01-25T11:35:18.124Z,69.06
2019-01-25T11:36:18.204Z,69.06
2019-01-25T11:37:18.304Z,68.77
2019-01-25T11:38:18.364Z,69.15
2019-01-25T11:39:18.458Z,69.15
2019-01-25T11:40:18.542Z,68.96
2019-01-25T11:41:18.628Z,69.06
2019-01-25T11:42:18.714Z,69.25
2019-01-25T11:43:18.803Z,69.15
2019-01-25T11:44:18.886Z,69.34
2019-01-25T11:45:18.972Z,69.63
2019-01-25T11:46:19.060Z,69.34
2019-01-25T11:47:19.147Z,69.12
2019-01-25T11:48:19.230Z,70.16
2019-01-25T11:49:19.316Z,70.63
2019-01-25T11:50:19.402Z,70.73
2019-01-25T11:51:20.015Z,71.30
2019-01-25T11:52:19.573Z,71.33
2019-01-25T11:53:19.661Z,71.04
2019-01-25T11:54:19.747Z,71.23
2019-01-25T11:55:19.834Z,70.67
2019-01-25T11:56:19.916Z,70.39
2019-01-25T11:57:20.846Z,70.86
2019-01-25T11:58:20.076Z,70.48
2019-01-25T11:59:20.162Z,70.29
2019-01-25T12:00:20.248Z,70.10
2019-01-25T12:01:20.335Z,70.25
2019-01-25T12:02:20.967Z,70.54
2019-01-25T12:03:20.506Z,71.39
2019-01-25T12:04:20.591Z,71.42
2019-01-25T12:05:20.678Z,71.30
2019-01-25T12:06:20.764Z,72.28
2019-01-25T12:07:20.849Z,71.80
2019-01-25T12:08:20.938Z,71.42
2019-01-25T12:09:21.021Z,71.52
2019-01-25T12:10:21.108Z,70.57
2019-01-25T12:11:21.194Z,71.23
2019-01-25T12:12:21.282Z,71.42
2019-01-25T12:13:21.369Z,70.67
2019-01-25T12:14:21.454Z,70.86
2019-01-25T12:15:21.554Z,70.48
2019-01-25T12:16:21.617Z,70.39
2019-01-25T12:17:21.704Z,70.29
2019-01-25T12:18:21.814Z,70.76
2019-01-25T12:19:21.875Z,70.39
2019-01-25T12:20:21.960Z,70.39
2019-01-25T12:21:22.051Z,70.95
2019-01-25T12:22:22.153Z,70.57
2019-01-25T12:23:22.218Z,70.20
2019-01-25T12:24:22.302Z,70.48
2019-01-25T12:25:22.391Z,70.76
2019-01-25T12:26:22.479Z,70.39
2019-01-25T12:27:22.560Z,70.20
2019-01-25T12:28:22.646Z,70.20
2019-01-25T12:29:22.788Z,70.57
2019-01-25T12:30:22.819Z,70.76
2019-01-25T12:31:22.909Z,70.57
2019-01-25T12:32:22.991Z,70.39
2019-01-25T12:33:23.076Z,70.39
2019-01-25T12:34:23.151Z,70.39
2019-01-25T12:35:23.257Z,70.89
2019-01-25T12:36:23.349Z,70.76
2019-01-25T12:37:23.430Z,70.70
2019-01-25T12:38:23.521Z,70.76
2019-01-25T12:39:23.602Z,70.70
2019-01-25T12:40:23.689Z,70.51
2019-01-25T12:41:23.770Z,70.76
2019-01-25T12:42:23.854Z,70.67
2019-01-25T12:43:24.404Z,70.86
2019-01-25T12:44:24.021Z,70.86
2019-01-25T12:45:24.109Z,71.33
2019-01-25T12:46:24.193Z,71.33
2019-01-25T12:47:24.275Z,71.33
2019-01-25T12:48:24.359Z,70.95
2019-01-25T12:49:24.442Z,71.04
2019-01-25T12:50:24.532Z,71.33
2019-01-25T12:51:24.599Z,71.42
2019-01-25T12:52:24.701Z,71.84
2019-01-25T12:53:24.787Z,71.74
2019-01-25T12:54:24.868Z,71.71
2019-01-25T12:55:24.960Z,71.42
2019-01-25T12:56:25.047Z,71.33